createdAt,value
2023-06-24T03:02:34.806Z,69.52
2023-06-24T03:05:10.802Z,69.38
2023-06-24T03:07:40.953Z,69.38
2023-06-24T03:10:12.738Z,69.56
2023-06-24T03:12:43.959Z,69.57
2023-06-24T03:15:16.034Z,69.59
2023-06-24T03:17:49.674Z,69.67
2023-06-24T03:20:59.059Z,69.61
2023-06-24T03:24:03.871Z,69.70
2023-06-24T03:27:33.030Z,69.83
2023-06-24T03:31:02.922Z,69.66
2023-06-24T03:33:33.519Z,69.61
2023-06-24T03:36:09.250Z,69.63
2023-06-24T03:38:38.671Z,69.64
2023-06-24T03:41:32.868Z,69.53
2023-06-24T03:44:03.324Z,69.48
2023-06-24T03:46:35.034Z,69.70
2023-06-24T03:49:10.265Z,69.62
2023-06-24T03:51:41.229Z,69.62
2023-06-24T03:54:13.539Z,69.62
2023-06-24T03:56:45.872Z,69.65
2023-06-24T03:59:15.755Z,69.80
2023-06-24T04:01:45.415Z,69.85
2023-06-24T04:04:15.813Z,69.87
2023-06-24T04:06:46.309Z,69.96
2023-06-24T04:09:17.393Z,69.94
2023-06-24T04:11:47.789Z,69.85
2023-06-24T04:14:17.512Z,69.85
2023-06-24T04:16:46.725Z,69.86
2023-06-24T04:19:16.328Z,69.96
2023-06-24T04:21:46.600Z,69.99
2023-06-24T04:24:16.567Z,70.07
2023-06-24T04:26:48.028Z,69.97
2023-06-24T04:29:17.049Z,70.01
2023-06-24T04:31:48.608Z,69.89
2023-06-24T04:34:19.916Z,70.00
2023-06-24T04:36:50.593Z,70.10
2023-06-24T04:39:20.048Z,70.05
2023-06-24T04:41:51.474Z,70.06
2023-06-24T04:44:22.921Z,69.98
2023-06-24T04:46:54.428Z,69.87
2023-06-24T04:49:28.924Z,69.82
2023-06-24T04:51:58.152Z,69.84
2023-06-24T04:54:28.540Z,69.85
2023-06-24T04:57:00.065Z,69.90
2023-06-24T04:59:31.356Z,69.52
2023-06-24T05:02:02.765Z,69.57
2023-06-24T05:04:46.587Z,69.37
2023-06-24T05:07:52.528Z,69.22
2023-06-24T05:10:55.175Z,69.17
2023-06-24T05:13:46.072Z,68.96
2023-06-24T05:16:41.181Z,68.78
2023-06-24T05:19:32.074Z,68.54
2023-06-24T05:23:00.581Z,68.25
2023-06-24T05:25:30.283Z,68.22
2023-06-24T05:28:01.868Z,68.11
2023-06-24T05:30:31.130Z,67.70
2023-06-24T05:33:00.114Z,67.61
2023-06-24T05:35:29.759Z,67.54
2023-06-24T05:37:59.144Z,67.24
2023-06-24T05:40:28.400Z,67.01
2023-06-24T05:43:01.268Z,67.13
2023-06-24T05:52:32.100Z,66.77
2023-06-24T05:55:20.023Z,66.62
2023-06-24T05:57:52.991Z,66.20
2023-06-24T06:00:31.266Z,66.57
2023-06-24T06:03:00.954Z,66.80
2023-06-24T06:05:48.184Z,66.75
2023-06-24T06:09:35.449Z,66.50
2023-06-24T06:12:58.361Z,66.05
2023-06-24T06:16:55.178Z,65.85
2023-06-24T06:20:06.147Z,65.95
2023-06-24T06:22:55.867Z,66.06
2023-06-24T06:25:29.257Z,65.84
2023-06-24T06:28:04.073Z,65.49
2023-06-24T06:30:34.411Z,65.58
2023-06-24T06:33:04.352Z,65.81
2023-06-24T06:35:33.264Z,65.98
2023-06-24T06:38:38.226Z,65.92
2023-06-24T06:41:27.892Z,65.64
2023-06-24T06:44:19.271Z,65.49
2023-06-24T06:47:24.788Z,65.45
2023-06-24T06:49:57.320Z,65.51
2023-06-24T06:52:27.403Z,65.20
2023-06-24T06:54:56.615Z,65.14
2023-06-24T06:57:28.593Z,65.26
2023-06-24T06:59:58.731Z,64.98
2023-06-24T07:02:29.245Z,64.74
2023-06-24T07:05:03.739Z,64.81
2023-06-24T07:07:37.944Z,64.89
2023-06-24T07:10:07.912Z,65.00
2023-06-24T07:12:36.758Z,65.02
2023-06-24T07:15:07.594Z,64.69
2023-06-24T07:17:36.773Z,64.53
2023-06-24T07:20:06.784Z,64.37
2023-06-24T07:22:36.207Z,64.20
2023-06-24T07:25:06.087Z,63.96
2023-06-24T07:27:35.327Z,64.06
2023-06-24T07:30:10.424Z,64.25
2023-06-24T07:32:40.627Z,64.04
2023-06-24T07:35:09.961Z,63.85
2023-06-24T07:37:40.546Z,63.91
2023-06-24T07:40:10.493Z,63.78
2023-06-24T07:42:40.088Z,62.87
2023-06-24T07:45:10.172Z,63.12
2023-06-24T07:47:40.036Z,63.03
2023-06-24T07:50:12.585Z,62.80
2023-06-24T07:52:42.676Z,62.63
2023-06-24T07:55:12.588Z,62.69
2023-06-24T07:57:44.263Z,62.80
2023-06-24T08:00:14.822Z,62.64
2023-06-24T08:02:46.378Z,62.39
2023-06-24T08:05:16.388Z,62.05
2023-06-24T08:07:49.160Z,62.17
2023-06-24T08:10:22.326Z,62.27
2023-06-24T08:12:51.906Z,61.98
2023-06-24T08:15:21.242Z,61.55
2023-06-24T08:17:57.067Z,61.34
2023-06-24T08:20:26.850Z,61.28
2023-06-24T08:22:56.484Z,61.43
2023-06-24T08:25:27.112Z,61.10
2023-06-24T08:27:58.539Z,60.61
2023-06-24T08:30:29.520Z,60.68
2023-06-24T08:33:29.635Z,60.26
2023-06-24T08:36:53.340Z,60.30
2023-06-24T08:39:47.010Z,60.59
2023-06-24T08:45:49.300Z,60.43
2023-06-24T08:49:06.851Z,60.02
2023-06-24T08:52:42.442Z,59.87
2023-06-24T08:55:57.699Z,59.48
2023-06-24T08:59:22.064Z,59.20
2023-06-24T09:02:15.861Z,59.30
2023-06-24T09:04:45.177Z,59.27
2023-06-24T09:07:27.893Z,59.11
2023-06-24T09:10:39.420Z,59.26
2023-06-24T09:13:17.501Z,59.16
2023-06-24T09:15:47.767Z,58.84
2023-06-24T09:18:39.605Z,58.78
2023-06-24T09:21:27.215Z,58.72
2023-06-24T09:24:02.254Z,58.87
2023-06-24T09:26:54.460Z,58.69
2023-06-24T09:29:36.711Z,58.68
2023-06-24T09:32:08.175Z,58.36
2023-06-24T09:34:44.280Z,58.41
2023-06-24T09:37:36.552Z,58.55
2023-06-24T09:40:29.401Z,57.92
2023-06-24T09:43:03.183Z,57.78
2023-06-24T09:45:33.077Z,57.72
2023-06-24T09:48:14.931Z,57.52
2023-06-24T09:50:45.534Z,57.63
2023-06-24T09:53:29.875Z,57.70
2023-06-24T09:56:11.825Z,57.46
2023-06-24T09:58:51.582Z,57.40
2023-06-24T10:01:27.667Z,57.58
2023-06-24T10:04:02.505Z,57.39
2023-06-24T10:07:07.371Z,57.46
2023-06-24T10:09:40.631Z,57.34
2023-06-24T10:12:14.915Z,57.28
2023-06-24T10:14:54.651Z,57.12
2023-06-24T10:17:29.239Z,56.86
2023-06-24T10:19:59.331Z,56.93
2023-06-24T10:22:34.830Z,56.87
2023-06-24T10:25:14.227Z,56.72
2023-06-24T10:27:57.906Z,56.62
2023-06-24T10:30:50.372Z,56.45
2023-06-24T10:33:44.842Z,56.29
2023-06-24T10:36:35.734Z,56.01
2023-06-24T10:39:51.205Z,56.25
2023-06-24T10:42:33.508Z,55.86
2023-06-24T10:45:16.285Z,55.69
2023-06-24T10:47:50.931Z,55.70
2023-06-24T10:50:26.764Z,55.72
2023-06-24T10:53:01.238Z,55.55
2023-06-24T10:55:30.791Z,55.33
2023-06-24T10:58:12.842Z,55.11
2023-06-24T11:00:48.463Z,55.24
2023-06-24T11:03:20.587Z,55.24
2023-06-24T11:05:51.551Z,55.12
2023-06-24T11:08:22.563Z,55.07
2023-06-24T11:11:07.981Z,54.90
2023-06-24T11:13:42.737Z,54.64
2023-06-24T11:16:24.889Z,54.53
2023-06-24T11:19:18.396Z,54.47
2023-06-24T11:22:06.973Z,54.29
2023-06-24T11:24:51.411Z,54.27
2023-06-24T11:27:33.103Z,53.81
2023-06-24T11:30:08.834Z,53.94
2023-06-24T11:33:03.326Z,53.31
2023-06-24T11:35:38.257Z,53.18
2023-06-24T11:38:16.850Z,53.04
2023-06-24T11:40:59.661Z,52.57
2023-06-24T11:43:45.752Z,52.54
2023-06-24T11:46:37.134Z,52.57
2023-06-24T11:49:11.443Z,52.45
2023-06-24T11:51:57.007Z,51.79
2023-06-24T11:54:44.179Z,51.76
2023-06-24T11:57:16.340Z,51.47
2023-06-24T11:59:45.503Z,51.27
2023-06-24T12:02:15.683Z,51.57
2023-06-24T12:04:46.142Z,51.26
2023-06-24T12:07:15.958Z,50.86
2023-06-24T12:09:45.864Z,50.92
2023-06-24T12:12:15.104Z,50.73
2023-06-24T12:14:45.686Z,50.76
2023-06-24T12:17:17.324Z,51.04
2023-06-24T12:19:55.738Z,50.78
2023-06-24T12:22:26.143Z,50.47
2023-06-24T12:24:56.817Z,50.51
2023-06-24T12:27:30.866Z,50.84
2023-06-24T12:30:15.351Z,50.24
2023-06-24T12:33:02.417Z,50.19
2023-06-24T12:35:51.981Z,50.26
2023-06-24T12:38:57.301Z,50.04
2023-06-24T12:41:43.916Z,49.64
2023-06-24T12:44:32.517Z,49.60
2023-06-24T12:47:06.514Z,49.20
2023-06-24T12:49:38.326Z,49.58
2023-06-24T12:52:09.602Z,49.51
2023-06-24T12:54:39.268Z,49.15
2023-06-24T12:57:13.945Z,49.09
2023-06-24T12:59:44.031Z,48.90
2023-06-24T13:02:13.665Z,48.56
2023-06-24T13:04:43.224Z,48.28
2023-06-24T13:07:12.979Z,48.06
2023-06-24T13:09:44.329Z,48.38
2023-06-24T13:12:13.718Z,48.31
2023-06-24T13:14:43.438Z,47.96
2023-06-24T13:17:13.454Z,48.17
2023-06-24T13:19:45.501Z,47.79
2023-06-24T13:22:15.225Z,47.78
2023-06-24T13:24:45.984Z,47.59
2023-06-24T13:27:15.304Z,47.52
2023-06-24T13:29:45.130Z,47.44
2023-06-24T13:32:14.598Z,47.35
2023-06-24T13:34:45.149Z,47.41
2023-06-24T13:37:16.575Z,47.39
2023-06-24T13:39:46.347Z,47.13
2023-06-24T13:42:16.121Z,47.32
2023-06-24T13:44:46.073Z,47.22
2023-06-24T13:47:15.614Z,47.08
2023-06-24T13:49:45.303Z,47.07
2023-06-24T13:52:14.826Z,46.89
2023-06-24T13:54:45.150Z,46.77
2023-06-24T13:57:18.584Z,46.40
2023-06-24T13:59:48.174Z,46.40
2023-06-24T14:02:17.895Z,46.37
2023-06-24T14:04:48.290Z,46.20
2023-06-24T14:07:17.820Z,46.10
2023-06-24T14:09:49.339Z,46.21
2023-06-24T14:12:17.888Z,45.89
2023-06-24T14:14:46.484Z,45.58
2023-06-24T14:17:16.035Z,45.64
2023-06-24T14:19:47.704Z,45.73
2023-06-24T14:22:19.347Z,45.18
2023-06-24T14:24:48.348Z,45.42
2023-06-24T14:27:19.070Z,45.39
2023-06-24T14:29:50.086Z,45.55
2023-06-24T14:32:19.121Z,45.27
2023-06-24T14:34:48.450Z,45.26
2023-06-24T14:37:17.902Z,45.23
2023-06-24T14:39:46.710Z,45.19
2023-06-24T14:42:17.498Z,45.06
2023-06-24T14:44:46.179Z,44.86
2023-06-24T14:47:14.742Z,44.84
2023-06-24T14:49:45.562Z,44.97
2023-06-24T14:52:14.930Z,44.79
2023-06-24T14:54:43.477Z,44.95
2023-06-24T14:57:13.618Z,44.85
2023-06-24T14:59:42.235Z,44.94
2023-06-24T15:02:11.946Z,44.96
2023-06-24T15:04:45.315Z,44.85
2023-06-24T15:07:14.942Z,44.87
2023-06-24T15:09:45.020Z,44.82
2023-06-24T15:12:14.439Z,44.95
2023-06-24T15:14:46.741Z,44.81
2023-06-24T15:17:16.462Z,44.80
2023-06-24T15:19:45.362Z,44.90
2023-06-24T15:22:14.735Z,44.59
2023-06-24T15:24:46.570Z,44.74
2023-06-24T15:27:15.159Z,44.84
2023-06-24T15:29:43.626Z,44.60
2023-06-24T15:32:13.032Z,44.77
2023-06-24T15:34:42.278Z,44.28
2023-06-24T15:37:11.964Z,44.14
2023-06-24T15:39:44.039Z,44.20
2023-06-24T15:42:12.737Z,43.89
2023-06-24T15:44:42.141Z,43.49
2023-06-24T15:47:11.969Z,43.68
2023-06-24T15:49:41.365Z,43.83
2023-06-24T15:52:11.218Z,43.75
2023-06-24T15:54:42.717Z,43.68
2023-06-24T15:57:12.348Z,43.58
2023-06-24T15:59:42.082Z,43.69
2023-06-24T16:02:12.343Z,43.68
2023-06-24T16:04:42.119Z,43.65
2023-06-24T16:07:11.390Z,43.66
2023-06-24T16:09:40.724Z,43.66
2023-06-24T16:12:10.452Z,43.39
2023-06-24T16:14:40.105Z,43.20
2023-06-24T16:17:10.109Z,43.34
2023-06-24T16:19:39.970Z,43.39
2023-06-24T16:22:10.223Z,43.52
2023-06-24T16:24:39.789Z,43.60
2023-06-24T16:27:09.425Z,43.55
2023-06-24T16:29:39.504Z,43.54
2023-06-24T16:32:08.879Z,43.48
2023-06-24T16:34:38.199Z,43.41
2023-06-24T16:37:07.937Z,43.56
2023-06-24T16:39:37.113Z,43.53
2023-06-24T16:42:06.690Z,43.50
2023-06-24T16:44:38.925Z,43.53
2023-06-24T16:47:08.148Z,43.52
2023-06-24T16:49:37.823Z,43.40
2023-06-24T16:52:07.959Z,43.49
2023-06-24T16:54:37.765Z,43.43
2023-06-24T16:57:06.525Z,43.48
2023-06-24T16:59:35.861Z,43.40
2023-06-24T17:02:08.058Z,43.62
2023-06-24T17:04:37.802Z,43.65
2023-06-24T17:07:06.709Z,43.64
2023-06-24T17:09:35.947Z,43.50
2023-06-24T17:12:06.310Z,43.64
2023-06-24T17:14:43.204Z,43.52
2023-06-24T17:17:13.097Z,43.55
2023-06-24T17:19:42.712Z,43.58
2023-06-24T17:22:12.140Z,43.62
2023-06-24T17:24:42.953Z,43.62
2023-06-24T17:27:11.875Z,43.63
2023-06-24T17:29:41.809Z,43.55
2023-06-24T17:32:11.049Z,43.73
2023-06-24T17:34:40.780Z,43.72
2023-06-24T17:37:10.658Z,43.84
2023-06-24T17:39:39.727Z,44.07
2023-06-24T17:42:09.234Z,43.99
2023-06-24T17:44:39.745Z,44.01
2023-06-24T17:47:10.465Z,44.16
2023-06-24T17:49:40.342Z,44.05
2023-06-24T17:52:09.271Z,44.14
2023-06-24T17:54:38.736Z,44.18
2023-06-24T17:57:13.307Z,44.18
2023-06-24T17:59:49.819Z,44.18
2023-06-24T18:02:20.535Z,44.22
2023-06-24T18:04:50.508Z,44.31
2023-06-24T18:07:21.146Z,44.40
2023-06-24T18:09:53.797Z,44.47
2023-06-24T18:12:28.258Z,44.57
2023-06-24T18:14:57.709Z,44.53
2023-06-24T18:17:26.524Z,44.85
2023-06-24T18:19:55.742Z,45.20
2023-06-24T18:22:24.593Z,45.26
2023-06-24T18:24:55.315Z,45.51
2023-06-24T18:27:25.228Z,45.89
2023-06-24T18:29:54.786Z,45.99
2023-06-24T18:32:24.080Z,46.36
2023-06-24T18:34:57.939Z,46.53
2023-06-24T18:37:28.070Z,46.63
2023-06-24T18:39:57.479Z,46.85
2023-06-24T18:42:26.931Z,46.94
2023-06-24T18:44:56.552Z,47.09
2023-06-24T18:47:25.972Z,47.22
2023-06-24T18:52:40.240Z,47.47
2023-06-24T18:55:09.924Z,47.56
2023-06-24T18:57:39.838Z,47.71
2023-06-24T19:00:09.924Z,47.79
2023-06-24T19:02:40.072Z,47.87
2023-06-24T19:05:09.542Z,48.05
2023-06-24T19:07:39.617Z,48.24
2023-06-24T19:10:09.851Z,48.25
2023-06-24T19:12:39.834Z,48.38
2023-06-24T19:15:10.689Z,48.52
2023-06-24T19:17:40.381Z,48.61
2023-06-24T19:20:10.374Z,48.84
2023-06-24T19:22:39.660Z,48.94
2023-06-24T19:25:08.962Z,49.00
2023-06-24T19:27:38.102Z,49.15
2023-06-24T19:30:08.112Z,49.19
2023-06-24T19:32:37.050Z,49.37
2023-06-24T19:35:06.590Z,49.37
2023-06-24T19:37:35.867Z,49.55
2023-06-24T19:40:05.929Z,49.57
2023-06-24T19:42:35.541Z,49.70
2023-06-24T19:45:06.858Z,49.76
2023-06-24T19:47:39.543Z,49.82
2023-06-24T19:50:11.824Z,49.95
2023-06-24T19:52:41.540Z,50.07
2023-06-24T19:55:15.514Z,50.12
2023-06-24T19:57:50.076Z,50.21
2023-06-24T20:00:27.915Z,50.29
2023-06-24T20:03:04.199Z,50.41
2023-06-24T20:05:38.852Z,50.54
2023-06-24T20:08:11.798Z,50.40
2023-06-24T20:10:41.063Z,50.63
2023-06-24T20:13:12.538Z,50.64
2023-06-24T20:15:47.533Z,50.70
2023-06-24T20:18:26.291Z,50.74
2023-06-24T20:20:59.979Z,50.82
2023-06-24T20:23:34.982Z,50.91
2023-06-24T20:26:07.504Z,51.02
2023-06-24T20:28:41.741Z,51.06
2023-06-24T20:31:14.135Z,51.02
2023-06-24T20:34:07.676Z,51.20
2023-06-24T20:36:39.870Z,51.40
2023-06-24T20:39:13.922Z,51.46
2023-06-24T20:41:45.562Z,51.59
2023-06-24T20:44:18.517Z,51.74
2023-06-24T20:46:49.485Z,51.77
2023-06-24T20:49:19.350Z,51.98
2023-06-24T20:51:55.009Z,51.97
2023-06-24T20:54:26.469Z,52.14
2023-06-24T20:56:58.731Z,52.25
2023-06-24T20:59:29.984Z,52.33
2023-06-24T21:01:59.320Z,52.27
2023-06-24T21:04:28.051Z,52.38
2023-06-24T21:06:56.582Z,52.52
2023-06-24T21:09:25.607Z,52.47
2023-06-24T21:11:54.968Z,52.70
2023-06-24T21:14:23.508Z,52.71
2023-06-24T21:16:52.379Z,52.82
2023-06-24T21:19:21.452Z,52.83
2023-06-24T21:21:50.769Z,52.91
2023-06-24T21:24:20.573Z,52.95
2023-06-24T21:26:49.675Z,52.97
2023-06-24T21:29:19.443Z,53.05
2023-06-24T21:31:48.601Z,53.08
2023-06-24T21:34:18.597Z,53.14
2023-06-24T21:36:47.824Z,53.25
2023-06-24T21:39:17.255Z,53.23
2023-06-24T21:41:47.452Z,53.28
2023-06-24T21:44:17.009Z,53.45
2023-06-24T21:46:46.406Z,53.47
2023-06-24T21:49:16.994Z,53.58
2023-06-24T21:51:45.852Z,53.56
2023-06-24T21:54:15.179Z,53.62
2023-06-24T21:56:44.412Z,53.72
2023-06-24T21:59:14.636Z,53.83
2023-06-24T22:01:43.937Z,53.90
2023-06-24T22:04:13.329Z,53.90
2023-06-24T22:06:44.216Z,53.99
2023-06-24T22:09:13.505Z,54.15
2023-06-24T22:11:42.921Z,54.19
2023-06-24T22:14:12.078Z,54.26
2023-06-24T22:16:43.276Z,54.26
2023-06-24T22:19:11.898Z,54.29
2023-06-24T22:21:40.549Z,54.32
2023-06-24T22:24:09.259Z,54.41
2023-06-24T22:26:40.099Z,54.37
2023-06-24T22:29:09.920Z,54.40
2023-06-24T22:31:40.494Z,54.47
2023-06-24T22:34:10.520Z,54.47
2023-06-24T22:36:41.437Z,54.64
2023-06-24T22:39:11.180Z,54.67
2023-06-24T22:41:39.769Z,54.74
2023-06-24T22:44:09.348Z,54.70
2023-06-24T22:46:38.186Z,54.78
2023-06-24T22:49:07.580Z,54.80
2023-06-24T22:51:36.932Z,54.78
2023-06-24T22:54:05.649Z,54.81
2023-06-24T22:56:35.271Z,54.88
2023-06-24T22:59:04.714Z,54.85
2023-06-24T23:01:34.213Z,54.85
2023-06-24T23:04:03.150Z,54.91
2023-06-24T23:06:33.049Z,54.93
2023-06-24T23:09:01.850Z,54.83
2023-06-24T23:11:32.032Z,55.10
2023-06-24T23:14:02.915Z,55.14
2023-06-24T23:16:32.606Z,55.17
2023-06-24T23:19:01.259Z,55.27
2023-06-24T23:21:31.502Z,55.33
2023-06-24T23:24:04.173Z,55.41
2023-06-24T23:26:41.078Z,55.28
2023-06-24T23:29:14.473Z,55.38
2023-06-24T23:31:46.049Z,55.55
2023-06-24T23:34:17.402Z,55.59
2023-06-24T23:36:46.609Z,55.73
2023-06-24T23:39:15.630Z,55.83
2023-06-24T23:41:44.970Z,55.93
2023-06-24T23:44:14.489Z,56.10
2023-06-24T23:46:43.262Z,56.18
2023-06-24T23:49:12.316Z,56.25
2023-06-24T23:51:42.118Z,56.37
2023-06-24T23:54:10.749Z,56.39
2023-06-24T23:56:41.118Z,56.54
2023-06-24T23:59:10.415Z,56.55
